Terminal Aerodrome Forecast
Issued by NWS

Home | Current Version | Previous Version | Text Only | Print | Product List | Glossary On
Versions: 1 2 3 4 5 6 7 8 9 10 11 12 13 14
095
FTUS43 KGRB 131722
TAFCWA
TAF
KCWA 131722Z 1318/1418 29007KT P6SM SKC
     FM140000 VRB03KT P6SM SKC
     FM140300 00000KT P6SM SCT250
     FM140900 13003KT P6SM BKN250
     FM141500 14008KT P6SM FEW040 BKN100=

USA.gov is the U.S. government's official web portal to all federal, state and local government web resources and services.